sensor_id;sensor_type;location;lat;lon;timestamp;P1;durP1;ratioP1;P2;durP2;ratioP2
10667;SDS011;5382;42.136;24.796;2023-07-29T00:00:41;5.65;;;2.92;;
10667;SDS011;5382;42.136;24.796;2023-07-29T00:03:08;3.15;;;2.85;;
10667;SDS011;5382;42.136;24.796;2023-07-29T00:05:35;4.40;;;2.60;;
10667;SDS011;5382;42.136;24.796;2023-07-29T00:08:02;4.32;;;2.90;;
10667;SDS011;5382;42.136;24.796;2023-07-29T00:13:02;3.30;;;2.63;;
10667;SDS011;5382;42.136;24.796;2023-07-29T00:15:29;3.42;;;2.42;;
10667;SDS011;5382;42.136;24.796;2023-07-29T00:17:55;4.57;;;2.70;;
10667;SDS011;5382;42.136;24.796;2023-07-29T00:20:22;3.75;;;2.65;;
10667;SDS011;5382;42.136;24.796;2023-07-29T00:22:49;3.00;;;2.38;;
10667;SDS011;5382;42.136;24.796;2023-07-29T00:25:19;6.72;;;3.10;;
10667;SDS011;5382;42.136;24.796;2023-07-29T00:27:47;6.50;;;3.30;;
10667;SDS011;5382;42.136;24.796;2023-07-29T00:30:13;4.07;;;3.40;;
10667;SDS011;5382;42.136;24.796;2023-07-29T00:32:40;4.65;;;3.55;;
10667;SDS011;5382;42.136;24.796;2023-07-29T00:35:07;5.65;;;3.45;;
10667;SDS011;5382;42.136;24.796;2023-07-29T00:37:35;8.00;;;3.92;;
10667;SDS011;5382;42.136;24.796;2023-07-29T00:40:03;7.18;;;3.65;;
10667;SDS011;5382;42.136;24.796;2023-07-29T00:42:30;5.10;;;3.80;;
10667;SDS011;5382;42.136;24.796;2023-07-29T00:44:58;3.38;;;3.13;;
10667;SDS011;5382;42.136;24.796;2023-07-29T00:47:25;4.93;;;3.10;;
10667;SDS011;5382;42.136;24.796;2023-07-29T00:49:52;4.82;;;3.35;;
10667;SDS011;5382;42.136;24.796;2023-07-29T00:52:18;3.10;;;2.78;;
10667;SDS011;5382;42.136;24.796;2023-07-29T00:54:44;3.20;;;2.45;;
10667;SDS011;5382;42.136;24.796;2023-07-29T00:57:11;3.75;;;2.55;;
10667;SDS011;5382;42.136;24.796;2023-07-29T00:59:40;3.88;;;2.63;;
10667;SDS011;5382;42.136;24.796;2023-07-29T01:02:09;2.70;;;2.35;;
10667;SDS011;5382;42.136;24.796;2023-07-29T01:04:36;4.05;;;3.05;;
10667;SDS011;5382;42.136;24.796;2023-07-29T01:07:03;3.72;;;2.80;;
10667;SDS011;5382;42.136;24.796;2023-07-29T01:09:40;4.72;;;2.58;;
10667;SDS011;5382;42.136;24.796;2023-07-29T01:12:11;6.40;;;2.30;;
10667;SDS011;5382;42.136;24.796;2023-07-29T01:14:46;3.97;;;2.70;;
10667;SDS011;5382;42.136;24.796;2023-07-29T01:17:22;5.68;;;3.10;;
10667;SDS011;5382;42.136;24.796;2023-07-29T01:19:55;3.60;;;2.13;;
10667;SDS011;5382;42.136;24.796;2023-07-29T01:22:28;3.45;;;2.70;;
10667;SDS011;5382;42.136;24.796;2023-07-29T01:24:57;5.93;;;2.20;;
10667;SDS011;5382;42.136;24.796;2023-07-29T01:27:24;3.20;;;2.65;;
10667;SDS011;5382;42.136;24.796;2023-07-29T01:29:51;2.78;;;2.22;;
10667;SDS011;5382;42.136;24.796;2023-07-29T01:32:20;4.15;;;3.55;;
10667;SDS011;5382;42.136;24.796;2023-07-29T01:34:56;4.25;;;2.92;;
10667;SDS011;5382;42.136;24.796;2023-07-29T01:37:26;4.18;;;2.85;;
10667;SDS011;5382;42.136;24.796;2023-07-29T01:40:00;3.47;;;2.53;;
10667;SDS011;5382;42.136;24.796;2023-07-29T01:42:27;3.22;;;2.35;;
10667;SDS011;5382;42.136;24.796;2023-07-29T01:44:55;4.32;;;2.50;;
10667;SDS011;5382;42.136;24.796;2023-07-29T01:47:22;5.70;;;2.70;;
10667;SDS011;5382;42.136;24.796;2023-07-29T01:49:49;3.08;;;2.40;;
10667;SDS011;5382;42.136;24.796;2023-07-29T01:52:16;4.25;;;2.88;;
10667;SDS011;5382;42.136;24.796;2023-07-29T01:54:43;2.95;;;2.50;;
10667;SDS011;5382;42.136;24.796;2023-07-29T01:57:11;5.40;;;3.15;;
10667;SDS011;5382;42.136;24.796;2023-07-29T01:59:38;6.00;;;2.95;;
10667;SDS011;5382;42.136;24.796;2023-07-29T02:02:05;3.63;;;3.10;;
10667;SDS011;5382;42.136;24.796;2023-07-29T02:04:32;5.95;;;3.47;;
10667;SDS011;5382;42.136;24.796;2023-07-29T02:06:59;5.68;;;3.63;;
10667;SDS011;5382;42.136;24.796;2023-07-29T02:09:26;5.00;;;3.80;;
10667;SDS011;5382;42.136;24.796;2023-07-29T02:11:53;5.20;;;3.88;;
10667;SDS011;5382;42.136;24.796;2023-07-29T02:14:21;6.45;;;3.50;;
10667;SDS011;5382;42.136;24.796;2023-07-29T02:16:48;5.35;;;3.20;;
10667;SDS011;5382;42.136;24.796;2023-07-29T02:19:15;4.88;;;3.40;;
10667;SDS011;5382;42.136;24.796;2023-07-29T02:21:42;7.82;;;3.13;;
10667;SDS011;5382;42.136;24.796;2023-07-29T02:24:09;6.22;;;3.58;;
10667;SDS011;5382;42.136;24.796;2023-07-29T02:26:36;5.05;;;3.60;;
10667;SDS011;5382;42.136;24.796;2023-07-29T02:29:02;4.90;;;3.40;;
10667;SDS011;5382;42.136;24.796;2023-07-29T02:31:31;5.03;;;3.40;;
10667;SDS011;5382;42.136;24.796;2023-07-29T02:33:57;4.28;;;3.42;;
10667;SDS011;5382;42.136;24.796;2023-07-29T02:36:24;9.07;;;4.50;;
10667;SDS011;5382;42.136;24.796;2023-07-29T02:38:51;8.25;;;3.42;;
10667;SDS011;5382;42.136;24.796;2023-07-29T02:41:18;7.82;;;4.57;;
10667;SDS011;5382;42.136;24.796;2023-07-29T02:43:47;4.78;;;3.50;;
10667;SDS011;5382;42.136;24.796;2023-07-29T02:46:15;7.72;;;2.97;;
10667;SDS011;5382;42.136;24.796;2023-07-29T02:48:44;6.43;;;3.05;;
10667;SDS011;5382;42.136;24.796;2023-07-29T02:51:11;7.65;;;2.88;;
10667;SDS011;5382;42.136;24.796;2023-07-29T02:53:38;6.50;;;3.63;;
10667;SDS011;5382;42.136;24.796;2023-07-29T02:56:04;4.70;;;3.45;;
10667;SDS011;5382;42.136;24.796;2023-07-29T02:58:34;7.75;;;3.47;;
10667;SDS011;5382;42.136;24.796;2023-07-29T03:01:01;5.50;;;3.20;;
10667;SDS011;5382;42.136;24.796;2023-07-29T03:03:28;8.15;;;3.70;;
10667;SDS011;5382;42.136;24.796;2023-07-29T03:06:01;4.50;;;3.50;;
10667;SDS011;5382;42.136;24.796;2023-07-29T03:08:30;6.10;;;3.60;;
10667;SDS011;5382;42.136;24.796;2023-07-29T03:10:57;4.57;;;3.75;;
10667;SDS011;5382;42.136;24.796;2023-07-29T03:13:24;8.60;;;3.42;;
10667;SDS011;5382;42.136;24.796;2023-07-29T03:15:51;8.65;;;3.78;;
10667;SDS011;5382;42.136;24.796;2023-07-29T03:18:18;5.75;;;3.17;;
10667;SDS011;5382;42.136;24.796;2023-07-29T03:20:45;7.22;;;4.57;;
10667;SDS011;5382;42.136;24.796;2023-07-29T03:23:13;4.45;;;3.75;;
10667;SDS011;5382;42.136;24.796;2023-07-29T03:25:40;5.80;;;3.78;;
10667;SDS011;5382;42.136;24.796;2023-07-29T03:28:06;6.43;;;4.35;;
10667;SDS011;5382;42.136;24.796;2023-07-29T03:30:33;6.88;;;3.22;;
10667;SDS011;5382;42.136;24.796;2023-07-29T03:33:00;3.53;;;2.90;;
10667;SDS011;5382;42.136;24.796;2023-07-29T03:35:29;9.75;;;3.80;;
10667;SDS011;5382;42.136;24.796;2023-07-29T03:37:56;6.80;;;4.30;;
10667;SDS011;5382;42.136;24.796;2023-07-29T03:40:24;10.15;;;3.97;;
10667;SDS011;5382;42.136;24.796;2023-07-29T03:42:51;7.05;;;3.88;;
10667;SDS011;5382;42.136;24.796;2023-07-29T03:45:18;6.07;;;3.47;;
10667;SDS011;5382;42.136;24.796;2023-07-29T03:47:44;5.50;;;3.63;;
10667;SDS011;5382;42.136;24.796;2023-07-29T03:50:11;7.25;;;3.70;;
10667;SDS011;5382;42.136;24.796;2023-07-29T03:52:38;7.03;;;4.03;;
10667;SDS011;5382;42.136;24.796;2023-07-29T03:55:05;6.72;;;4.72;;
10667;SDS011;5382;42.136;24.796;2023-07-29T03:57:34;8.70;;;4.57;;
10667;SDS011;5382;42.136;24.796;2023-07-29T04:00:01;6.72;;;4.07;;
10667;SDS011;5382;42.136;24.796;2023-07-29T04:02:28;7.18;;;4.47;;
10667;SDS011;5382;42.136;24.796;2023-07-29T04:04:55;7.35;;;5.00;;
10667;SDS011;5382;42.136;24.796;2023-07-29T04:07:22;6.13;;;4.20;;
10667;SDS011;5382;42.136;24.796;2023-07-29T04:09:48;9.73;;;4.15;;
10667;SDS011;5382;42.136;24.796;2023-07-29T04:12:15;9.98;;;4.93;;
10667;SDS011;5382;42.136;24.796;2023-07-29T04:14:47;7.40;;;4.97;;
10667;SDS011;5382;42.136;24.796;2023-07-29T04:17:14;5.57;;;4.32;;
10667;SDS011;5382;42.136;24.796;2023-07-29T04:19:41;6.00;;;4.20;;
10667;SDS011;5382;42.136;24.796;2023-07-29T04:22:09;10.18;;;4.00;;
10667;SDS011;5382;42.136;24.796;2023-07-29T04:24:37;10.15;;;4.20;;
10667;SDS011;5382;42.136;24.796;2023-07-29T04:27:04;7.88;;;4.72;;
10667;SDS011;5382;42.136;24.796;2023-07-29T04:29:31;6.20;;;4.50;;
10667;SDS011;5382;42.136;24.796;2023-07-29T04:31:59;5.65;;;4.35;;
10667;SDS011;5382;42.136;24.796;2023-07-29T04:34:26;9.23;;;4.57;;
10667;SDS011;5382;42.136;24.796;2023-07-29T04:36:53;6.30;;;4.43;;
10667;SDS011;5382;42.136;24.796;2023-07-29T04:39:20;7.75;;;4.65;;
10667;SDS011;5382;42.136;24.796;2023-07-29T04:41:47;5.50;;;4.32;;
10667;SDS011;5382;42.136;24.796;2023-07-29T04:44:14;4.90;;;4.28;;
10667;SDS011;5382;42.136;24.796;2023-07-29T04:46:40;7.80;;;5.75;;
10667;SDS011;5382;42.136;24.796;2023-07-29T04:49:09;8.52;;;6.18;;
10667;SDS011;5382;42.136;24.796;2023-07-29T04:51:36;8.32;;;5.68;;
10667;SDS011;5382;42.136;24.796;2023-07-29T04:54:03;6.45;;;5.57;;
10667;SDS011;5382;42.136;24.796;2023-07-29T04:56:30;14.82;;;13.02;;
10667;SDS011;5382;42.136;24.796;2023-07-29T04:58:57;9.85;;;7.03;;
10667;SDS011;5382;42.136;24.796;2023-07-29T05:01:23;7.63;;;6.32;;
10667;SDS011;5382;42.136;24.796;2023-07-29T05:03:50;19.50;;;13.00;;
10667;SDS011;5382;42.136;24.796;2023-07-29T05:06:18;14.83;;;10.70;;
10667;SDS011;5382;42.136;24.796;2023-07-29T05:08:45;9.90;;;7.32;;
10667;SDS011;5382;42.136;24.796;2023-07-29T05:11:12;19.27;;;15.02;;
10667;SDS011;5382;42.136;24.796;2023-07-29T05:13:39;11.65;;;7.07;;
10667;SDS011;5382;42.136;24.796;2023-07-29T05:16:06;7.72;;;4.78;;
10667;SDS011;5382;42.136;24.796;2023-07-29T05:18:32;7.35;;;4.72;;
10667;SDS011;5382;42.136;24.796;2023-07-29T05:20:59;5.88;;;4.38;;
10667;SDS011;5382;42.136;24.796;2023-07-29T05:23:27;5.57;;;4.30;;
10667;SDS011;5382;42.136;24.796;2023-07-29T05:25:54;7.85;;;6.03;;
10667;SDS011;5382;42.136;24.796;2023-07-29T05:28:21;6.63;;;3.97;;
10667;SDS011;5382;42.136;24.796;2023-07-29T05:30:48;6.07;;;3.25;;
10667;SDS011;5382;42.136;24.796;2023-07-29T05:33:15;6.50;;;3.88;;
10667;SDS011;5382;42.136;24.796;2023-07-29T05:35:41;6.28;;;3.65;;
10667;SDS011;5382;42.136;24.796;2023-07-29T05:38:08;7.05;;;3.60;;
10667;SDS011;5382;42.136;24.796;2023-07-29T05:40:36;8.73;;;3.97;;
10667;SDS011;5382;42.136;24.796;2023-07-29T05:43:03;5.07;;;3.70;;
10667;SDS011;5382;42.136;24.796;2023-07-29T05:45:30;9.43;;;4.57;;
10667;SDS011;5382;42.136;24.796;2023-07-29T05:47:57;7.35;;;4.07;;
10667;SDS011;5382;42.136;24.796;2023-07-29T05:50:24;7.43;;;3.95;;
10667;SDS011;5382;42.136;24.796;2023-07-29T05:52:50;10.35;;;4.05;;
10667;SDS011;5382;42.136;24.796;2023-07-29T05:55:17;9.93;;;4.80;;
10667;SDS011;5382;42.136;24.796;2023-07-29T05:57:46;11.82;;;5.60;;
10667;SDS011;5382;42.136;24.796;2023-07-29T06:00:12;7.55;;;3.78;;
10667;SDS011;5382;42.136;24.796;2023-07-29T06:02:39;5.85;;;3.40;;
10667;SDS011;5382;42.136;24.796;2023-07-29T06:05:06;7.32;;;3.05;;
10667;SDS011;5382;42.136;24.796;2023-07-29T06:07:34;4.63;;;3.30;;
10667;SDS011;5382;42.136;24.796;2023-07-29T06:10:00;5.60;;;2.97;;
10667;SDS011;5382;42.136;24.796;2023-07-29T06:12:27;3.70;;;2.72;;
10667;SDS011;5382;42.136;24.796;2023-07-29T06:14:55;6.05;;;3.42;;
10667;SDS011;5382;42.136;24.796;2023-07-29T06:17:22;4.60;;;3.40;;
10667;SDS011;5382;42.136;24.796;2023-07-29T06:19:49;5.68;;;3.40;;
10667;SDS011;5382;42.136;24.796;2023-07-29T06:22:16;4.10;;;2.88;;
10667;SDS011;5382;42.136;24.796;2023-07-29T06:24:43;6.60;;;3.15;;
10667;SDS011;5382;42.136;24.796;2023-07-29T06:27:09;4.57;;;2.90;;
10667;SDS011;5382;42.136;24.796;2023-07-29T06:29:36;9.05;;;3.42;;
10667;SDS011;5382;42.136;24.796;2023-07-29T06:32:05;3.90;;;2.92;;
10667;SDS011;5382;42.136;24.796;2023-07-29T06:34:32;5.72;;;3.03;;
10667;SDS011;5382;42.136;24.796;2023-07-29T06:36:59;6.63;;;3.13;;
10667;SDS011;5382;42.136;24.796;2023-07-29T06:39:26;4.03;;;3.22;;
10667;SDS011;5382;42.136;24.796;2023-07-29T06:41:53;4.78;;;3.13;;
10667;SDS011;5382;42.136;24.796;2023-07-29T06:44:19;5.85;;;3.08;;
10667;SDS011;5382;42.136;24.796;2023-07-29T06:46:46;4.95;;;2.85;;
10667;SDS011;5382;42.136;24.796;2023-07-29T06:49:14;5.10;;;2.92;;
10667;SDS011;5382;42.136;24.796;2023-07-29T06:51:41;6.82;;;2.80;;
10667;SDS011;5382;42.136;24.796;2023-07-29T06:54:08;4.53;;;2.90;;
10667;SDS011;5382;42.136;24.796;2023-07-29T06:56:35;3.80;;;2.60;;
10667;SDS011;5382;42.136;24.796;2023-07-29T06:59:02;6.15;;;3.03;;
10667;SDS011;5382;42.136;24.796;2023-07-29T07:01:29;3.90;;;2.70;;
10667;SDS011;5382;42.136;24.796;2023-07-29T07:03:55;5.20;;;2.58;;
10667;SDS011;5382;42.136;24.796;2023-07-29T07:06:25;3.90;;;2.40;;
10667;SDS011;5382;42.136;24.796;2023-07-29T07:08:52;6.47;;;2.80;;
10667;SDS011;5382;42.136;24.796;2023-07-29T07:11:18;5.10;;;2.88;;
10667;SDS011;5382;42.136;24.796;2023-07-29T07:13:45;9.02;;;3.13;;
10667;SDS011;5382;42.136;24.796;2023-07-29T07:16:12;15.27;;;3.72;;
10667;SDS011;5382;42.136;24.796;2023-07-29T07:18:39;4.38;;;2.80;;
10667;SDS011;5382;42.136;24.796;2023-07-29T07:21:06;4.72;;;3.10;;
10667;SDS011;5382;42.136;24.796;2023-07-29T07:23:34;5.80;;;2.88;;
10667;SDS011;5382;42.136;24.796;2023-07-29T07:26:01;6.97;;;3.10;;
10667;SDS011;5382;42.136;24.796;2023-07-29T07:28:28;4.55;;;2.90;;
10667;SDS011;5382;42.136;24.796;2023-07-29T07:30:55;4.53;;;2.60;;
10667;SDS011;5382;42.136;24.796;2023-07-29T07:33:22;4.50;;;3.00;;
10667;SDS011;5382;42.136;24.796;2023-07-29T07:35:49;4.75;;;2.92;;
10667;SDS011;5382;42.136;24.796;2023-07-29T07:38:16;3.45;;;2.50;;
10667;SDS011;5382;42.136;24.796;2023-07-29T07:40:46;3.70;;;2.70;;
10667;SDS011;5382;42.136;24.796;2023-07-29T07:43:19;6.25;;;2.97;;
10667;SDS011;5382;42.136;24.796;2023-07-29T07:45:46;9.15;;;3.35;;
10667;SDS011;5382;42.136;24.796;2023-07-29T07:48:12;5.95;;;3.22;;
10667;SDS011;5382;42.136;24.796;2023-07-29T07:50:41;5.68;;;2.95;;
10667;SDS011;5382;42.136;24.796;2023-07-29T07:53:08;4.13;;;3.00;;
10667;SDS011;5382;42.136;24.796;2023-07-29T07:55:35;4.28;;;2.88;;
10667;SDS011;5382;42.136;24.796;2023-07-29T07:58:03;3.60;;;2.80;;
10667;SDS011;5382;42.136;24.796;2023-07-29T08:00:30;6.32;;;3.20;;
10667;SDS011;5382;42.136;24.796;2023-07-29T08:02:57;3.88;;;2.80;;
10667;SDS011;5382;42.136;24.796;2023-07-29T08:05:24;6.30;;;2.83;;
10667;SDS011;5382;42.136;24.796;2023-07-29T08:07:50;5.00;;;2.95;;
10667;SDS011;5382;42.136;24.796;2023-07-29T08:10:17;9.25;;;2.63;;
10667;SDS011;5382;42.136;24.796;2023-07-29T08:12:44;7.32;;;3.38;;
10667;SDS011;5382;42.136;24.796;2023-07-29T08:15:12;4.40;;;2.90;;
10667;SDS011;5382;42.136;24.796;2023-07-29T08:17:39;4.35;;;3.05;;
10667;SDS011;5382;42.136;24.796;2023-07-29T08:20:06;5.03;;;3.17;;
10667;SDS011;5382;42.136;24.796;2023-07-29T08:22:34;7.40;;;2.97;;
10667;SDS011;5382;42.136;24.796;2023-07-29T08:25:01;3.92;;;2.83;;
10667;SDS011;5382;42.136;24.796;2023-07-29T08:27:28;7.25;;;3.38;;
10667;SDS011;5382;42.136;24.796;2023-07-29T08:29:54;4.60;;;2.88;;
10667;SDS011;5382;42.136;24.796;2023-07-29T08:32:23;7.63;;;3.42;;
10667;SDS011;5382;42.136;24.796;2023-07-29T08:34:49;4.95;;;3.05;;
10667;SDS011;5382;42.136;24.796;2023-07-29T08:37:16;7.68;;;3.40;;
10667;SDS011;5382;42.136;24.796;2023-07-29T08:39:43;6.05;;;2.80;;
10667;SDS011;5382;42.136;24.796;2023-07-29T08:42:11;5.55;;;3.17;;
10667;SDS011;5382;42.136;24.796;2023-07-29T08:44:40;3.00;;;2.70;;
10667;SDS011;5382;42.136;24.796;2023-07-29T08:47:07;5.97;;;3.13;;
10667;SDS011;5382;42.136;24.796;2023-07-29T08:49:35;6.88;;;3.17;;
10667;SDS011;5382;42.136;24.796;2023-07-29T08:52:04;4.90;;;3.10;;
10667;SDS011;5382;42.136;24.796;2023-07-29T08:54:31;3.50;;;3.20;;
10667;SDS011;5382;42.136;24.796;2023-07-29T08:56:58;8.63;;;3.60;;
10667;SDS011;5382;42.136;24.796;2023-07-29T08:59:25;6.15;;;3.70;;
10667;SDS011;5382;42.136;24.796;2023-07-29T09:01:54;9.10;;;4.50;;
10667;SDS011;5382;42.136;24.796;2023-07-29T09:04:23;7.50;;;4.25;;
10667;SDS011;5382;42.136;24.796;2023-07-29T09:06:52;4.45;;;4.05;;
10667;SDS011;5382;42.136;24.796;2023-07-29T09:09:22;6.32;;;4.50;;
10667;SDS011;5382;42.136;24.796;2023-07-29T09:11:48;5.40;;;4.57;;
10667;SDS011;5382;42.136;24.796;2023-07-29T09:14:15;4.47;;;4.03;;
10667;SDS011;5382;42.136;24.796;2023-07-29T09:16:43;6.28;;;3.75;;
10667;SDS011;5382;42.136;24.796;2023-07-29T09:19:10;4.90;;;3.58;;
10667;SDS011;5382;42.136;24.796;2023-07-29T09:21:38;3.35;;;3.00;;
10667;SDS011;5382;42.136;24.796;2023-07-29T09:24:07;5.78;;;3.40;;
10667;SDS011;5382;42.136;24.796;2023-07-29T09:26:35;4.47;;;3.38;;
10667;SDS011;5382;42.136;24.796;2023-07-29T09:29:02;8.65;;;3.40;;
10667;SDS011;5382;42.136;24.796;2023-07-29T09:31:29;8.25;;;3.20;;
10667;SDS011;5382;42.136;24.796;2023-07-29T09:33:56;9.27;;;3.10;;
10667;SDS011;5382;42.136;24.796;2023-07-29T09:36:24;5.20;;;3.17;;
10667;SDS011;5382;42.136;24.796;2023-07-29T09:38:54;2.92;;;2.63;;
10667;SDS011;5382;42.136;24.796;2023-07-29T09:41:24;5.60;;;2.90;;
10667;SDS011;5382;42.136;24.796;2023-07-29T09:43:55;6.05;;;2.90;;
10667;SDS011;5382;42.136;24.796;2023-07-29T09:46:23;3.05;;;2.70;;
10667;SDS011;5382;42.136;24.796;2023-07-29T09:48:53;4.45;;;3.05;;
10667;SDS011;5382;42.136;24.796;2023-07-29T09:51:20;4.28;;;3.20;;
10667;SDS011;5382;42.136;24.796;2023-07-29T09:53:48;5.32;;;3.20;;
10667;SDS011;5382;42.136;24.796;2023-07-29T09:56:17;4.70;;;3.05;;
10667;SDS011;5382;42.136;24.796;2023-07-29T09:58:45;3.78;;;2.40;;
10667;SDS011;5382;42.136;24.796;2023-07-29T10:01:14;4.32;;;2.60;;
10667;SDS011;5382;42.136;24.796;2023-07-29T10:03:41;2.83;;;2.22;;
10667;SDS011;5382;42.136;24.796;2023-07-29T10:06:10;3.90;;;2.67;;
10667;SDS011;5382;42.136;24.796;2023-07-29T10:08:37;2.63;;;2.35;;
10667;SDS011;5382;42.136;24.796;2023-07-29T10:11:06;4.43;;;2.15;;
10667;SDS011;5382;42.136;24.796;2023-07-29T10:13:34;2.97;;;2.10;;
10667;SDS011;5382;42.136;24.796;2023-07-29T10:16:03;2.58;;;2.38;;
10667;SDS011;5382;42.136;24.796;2023-07-29T10:18:30;2.55;;;2.13;;
10667;SDS011;5382;42.136;24.796;2023-07-29T10:20:58;3.42;;;2.70;;
10667;SDS011;5382;42.136;24.796;2023-07-29T10:23:27;7.25;;;2.80;;
10667;SDS011;5382;42.136;24.796;2023-07-29T10:25:59;3.28;;;2.15;;
10667;SDS011;5382;42.136;24.796;2023-07-29T10:28:30;2.83;;;2.30;;
10667;SDS011;5382;42.136;24.796;2023-07-29T10:30:58;2.22;;;2.00;;
10667;SDS011;5382;42.136;24.796;2023-07-29T10:33:27;2.47;;;2.28;;
10667;SDS011;5382;42.136;24.796;2023-07-29T10:35:53;5.10;;;2.40;;
10667;SDS011;5382;42.136;24.796;2023-07-29T10:38:21;4.85;;;2.05;;
10667;SDS011;5382;42.136;24.796;2023-07-29T10:40:51;3.95;;;2.20;;
10667;SDS011;5382;42.136;24.796;2023-07-29T10:43:24;2.17;;;1.88;;
10667;SDS011;5382;42.136;24.796;2023-07-29T10:45:51;3.13;;;2.50;;
10667;SDS011;5382;42.136;24.796;2023-07-29T10:51:28;3.80;;;2.00;;
10667;SDS011;5382;42.136;24.796;2023-07-29T10:53:57;3.53;;;2.30;;
10667;SDS011;5382;42.136;24.796;2023-07-29T10:56:29;2.58;;;2.38;;
10667;SDS011;5382;42.136;24.796;2023-07-29T10:58:57;2.47;;;2.20;;
10667;SDS011;5382;42.136;24.796;2023-07-29T11:01:28;2.42;;;2.20;;
10667;SDS011;5382;42.136;24.796;2023-07-29T11:12:41;4.00;;;1.95;;
10667;SDS011;5382;42.136;24.796;2023-07-29T11:15:23;2.97;;;2.10;;
10667;SDS011;5382;42.136;24.796;2023-07-29T11:17:52;3.42;;;1.90;;
10667;SDS011;5382;42.136;24.796;2023-07-29T11:20:21;10.18;;;2.60;;
10667;SDS011;5382;42.136;24.796;2023-07-29T11:22:49;1.90;;;1.70;;
10667;SDS011;5382;42.136;24.796;2023-07-29T11:25:17;2.22;;;2.00;;
10667;SDS011;5382;42.136;24.796;2023-07-29T11:27:45;2.20;;;2.00;;
10667;SDS011;5382;42.136;24.796;2023-07-29T11:30:31;3.40;;;1.88;;
10667;SDS011;5382;42.136;24.796;2023-07-29T11:32:58;2.50;;;1.77;;
10667;SDS011;5382;42.136;24.796;2023-07-29T11:35:27;3.25;;;2.10;;
10667;SDS011;5382;42.136;24.796;2023-07-29T11:37:54;3.67;;;1.80;;
10667;SDS011;5382;42.136;24.796;2023-07-29T11:40:23;2.40;;;2.10;;
10667;SDS011;5382;42.136;24.796;2023-07-29T11:42:50;3.15;;;1.50;;
10667;SDS011;5382;42.136;24.796;2023-07-29T11:45:18;2.30;;;1.65;;
10667;SDS011;5382;42.136;24.796;2023-07-29T11:47:46;2.83;;;1.63;;
10667;SDS011;5382;42.136;24.796;2023-07-29T11:50:13;4.05;;;2.42;;
10667;SDS011;5382;42.136;24.796;2023-07-29T11:52:43;2.05;;;1.40;;
10667;SDS011;5382;42.136;24.796;2023-07-29T11:55:11;2.10;;;1.70;;
10667;SDS011;5382;42.136;24.796;2023-07-29T11:57:39;2.22;;;1.50;;
10667;SDS011;5382;42.136;24.796;2023-07-29T12:00:08;1.58;;;1.48;;
10667;SDS011;5382;42.136;24.796;2023-07-29T12:02:37;2.25;;;1.45;;
10667;SDS011;5382;42.136;24.796;2023-07-29T12:05:05;2.05;;;1.60;;
10667;SDS011;5382;42.136;24.796;2023-07-29T12:07:34;1.73;;;1.60;;
10667;SDS011;5382;42.136;24.796;2023-07-29T12:10:03;1.67;;;1.42;;
10667;SDS011;5382;42.136;24.796;2023-07-29T12:12:30;3.28;;;1.50;;
10667;SDS011;5382;42.136;24.796;2023-07-29T12:14:57;1.52;;;1.42;;
10667;SDS011;5382;42.136;24.796;2023-07-29T12:17:24;2.15;;;1.52;;
10667;SDS011;5382;42.136;24.796;2023-07-29T12:19:53;3.08;;;1.40;;
10667;SDS011;5382;42.136;24.796;2023-07-29T12:22:20;1.45;;;1.30;;
10667;SDS011;5382;42.136;24.796;2023-07-29T12:24:49;1.40;;;1.30;;
10667;SDS011;5382;42.136;24.796;2023-07-29T12:27:21;5.25;;;1.48;;
10667;SDS011;5382;42.136;24.796;2023-07-29T12:29:48;1.83;;;1.38;;
10667;SDS011;5382;42.136;24.796;2023-07-29T12:32:18;1.10;;;1.00;;
10667;SDS011;5382;42.136;24.796;2023-07-29T12:34:45;2.45;;;1.30;;
10667;SDS011;5382;42.136;24.796;2023-07-29T12:37:12;1.80;;;1.30;;
10667;SDS011;5382;42.136;24.796;2023-07-29T12:39:39;1.55;;;1.30;;
10667;SDS011;5382;42.136;24.796;2023-07-29T12:42:07;24.17;;;3.05;;
10667;SDS011;5382;42.136;24.796;2023-07-29T12:44:36;2.17;;;0.98;;
10667;SDS011;5382;42.136;24.796;2023-07-29T12:47:03;1.00;;;0.90;;
10667;SDS011;5382;42.136;24.796;2023-07-29T12:49:32;13.48;;;1.77;;
10667;SDS011;5382;42.136;24.796;2023-07-29T12:51:59;1.42;;;1.08;;
10667;SDS011;5382;42.136;24.796;2023-07-29T12:54:26;0.80;;;0.80;;
10667;SDS011;5382;42.136;24.796;2023-07-29T12:56:53;2.42;;;0.98;;
10667;SDS011;5382;42.136;24.796;2023-07-29T12:59:20;1.30;;;0.75;;
10667;SDS011;5382;42.136;24.796;2023-07-29T13:01:48;0.98;;;0.80;;
10667;SDS011;5382;42.136;24.796;2023-07-29T13:04:15;1.88;;;0.80;;
10667;SDS011;5382;42.136;24.796;2023-07-29T13:06:41;0.70;;;0.70;;
10667;SDS011;5382;42.136;24.796;2023-07-29T13:09:08;1.25;;;0.90;;
10667;SDS011;5382;42.136;24.796;2023-07-29T13:11:35;1.65;;;1.05;;
10667;SDS011;5382;42.136;24.796;2023-07-29T13:14:02;1.90;;;0.93;;
10667;SDS011;5382;42.136;24.796;2023-07-29T13:16:29;1.70;;;1.00;;
10667;SDS011;5382;42.136;24.796;2023-07-29T13:18:57;1.02;;;0.80;;
10667;SDS011;5382;42.136;24.796;2023-07-29T13:21:24;1.05;;;0.80;;
10667;SDS011;5382;42.136;24.796;2023-07-29T13:23:51;1.40;;;1.00;;
10667;SDS011;5382;42.136;24.796;2023-07-29T13:26:18;1.20;;;1.10;;
10667;SDS011;5382;42.136;24.796;2023-07-29T13:28:45;1.25;;;1.10;;
10667;SDS011;5382;42.136;24.796;2023-07-29T13:31:12;2.60;;;1.02;;
10667;SDS011;5382;42.136;24.796;2023-07-29T13:33:39;1.55;;;1.00;;
10667;SDS011;5382;42.136;24.796;2023-07-29T13:36:07;1.35;;;1.25;;
10667;SDS011;5382;42.136;24.796;2023-07-29T13:38:34;3.90;;;1.52;;
10667;SDS011;5382;42.136;24.796;2023-07-29T13:41:01;1.30;;;1.20;;
10667;SDS011;5382;42.136;24.796;2023-07-29T13:43:28;1.75;;;1.05;;
10667;SDS011;5382;42.136;24.796;2023-07-29T13:45:55;2.60;;;0.82;;
10667;SDS011;5382;42.136;24.796;2023-07-29T13:48:22;1.67;;;0.80;;
10667;SDS011;5382;42.136;24.796;2023-07-29T13:50:48;1.80;;;0.75;;
10667;SDS011;5382;42.136;24.796;2023-07-29T13:53:17;1.35;;;0.60;;
10667;SDS011;5382;42.136;24.796;2023-07-29T13:55:44;0.82;;;0.82;;
10667;SDS011;5382;42.136;24.796;2023-07-29T13:58:11;1.42;;;0.57;;
10667;SDS011;5382;42.136;24.796;2023-07-29T14:00:38;0.55;;;0.55;;
10667;SDS011;5382;42.136;24.796;2023-07-29T14:03:05;2.88;;;0.80;;
10667;SDS011;5382;42.136;24.796;2023-07-29T14:05:31;0.90;;;0.80;;
10667;SDS011;5382;42.136;24.796;2023-07-29T14:07:58;6.97;;;1.42;;
10667;SDS011;5382;42.136;24.796;2023-07-29T14:10:26;1.00;;;0.85;;
10667;SDS011;5382;42.136;24.796;2023-07-29T14:12:53;1.60;;;1.05;;
10667;SDS011;5382;42.136;24.796;2023-07-29T14:15:20;1.20;;;1.10;;
10667;SDS011;5382;42.136;24.796;2023-07-29T14:17:48;1.35;;;0.98;;
10667;SDS011;5382;42.136;24.796;2023-07-29T14:20:14;3.38;;;0.70;;
10667;SDS011;5382;42.136;24.796;2023-07-29T14:22:41;1.10;;;0.85;;
10667;SDS011;5382;42.136;24.796;2023-07-29T14:25:08;1.63;;;1.00;;
10667;SDS011;5382;42.136;24.796;2023-07-29T14:27:36;1.35;;;1.02;;
10667;SDS011;5382;42.136;24.796;2023-07-29T14:30:03;1.30;;;1.08;;
10667;SDS011;5382;42.136;24.796;2023-07-29T14:32:32;3.08;;;0.98;;
10667;SDS011;5382;42.136;24.796;2023-07-29T14:34:58;1.55;;;0.85;;
10667;SDS011;5382;42.136;24.796;2023-07-29T14:37:28;0.95;;;0.90;;
10667;SDS011;5382;42.136;24.796;2023-07-29T14:39:55;1.00;;;0.90;;
10667;SDS011;5382;42.136;24.796;2023-07-29T14:42:22;1.38;;;0.93;;
10667;SDS011;5382;42.136;24.796;2023-07-29T14:44:50;1.00;;;0.90;;
10667;SDS011;5382;42.136;24.796;2023-07-29T14:47:17;1.08;;;1.00;;
10667;SDS011;5382;42.136;24.796;2023-07-29T14:49:44;1.48;;;1.10;;
10667;SDS011;5382;42.136;24.796;2023-07-29T14:52:11;2.67;;;1.10;;
10667;SDS011;5382;42.136;24.796;2023-07-29T14:54:38;1.80;;;0.93;;
10667;SDS011;5382;42.136;24.796;2023-07-29T14:57:06;1.23;;;1.00;;
10667;SDS011;5382;42.136;24.796;2023-07-29T14:59:33;1.50;;;1.13;;
10667;SDS011;5382;42.136;24.796;2023-07-29T15:02:01;1.92;;;0.75;;
10667;SDS011;5382;42.136;24.796;2023-07-29T15:04:28;2.70;;;1.00;;